Data for 10/05/2017

Time Sea-Level Adjusted Pressure Absolute Pressure Temperature Relative Humidity Dew Point   
(mb) (inHg) (mb) (inHg) (C) (F) (%) (C) (F)
00:05 1026 30.3 855 25.25 1.4 34.5 89 -0.3 31.4
00:10 1026 30.3 855 25.25 1.4 34.6 88 -0.4 31.3
00:15 1026 30.3 855 25.25 1.3 34.4 88 -0.4 31.2
00:20 1026 30.3 855 25.25 1.3 34.4 88 -0.5 31.2
00:25 1026 30.3 855 25.25 1.4 34.4 87 -0.5 31
00:30 1026 30.3 855 25.25 1.4 34.4 87 -0.6 31
00:35 1026 30.3 855 25.25 1.4 34.4 87 -0.6 30.9
00:40 1026 30.3 855 25.25 1.2 34.2 87 -0.7 30.8
00:45 1026 30.3 855 25.25 1.2 34.2 87 -0.7 30.8
00:50 1025 30.27 855 25.25 1.3 34.3 88 -0.6 31
00:55 1025 30.27 855 25.25 1.3 34.4 87 -0.6 31
01:00 1025 30.27 855 25.25 1.3 34.4 87 -0.6 30.9
01:05 1025 30.27 855 25.25 1.3 34.4 87 -0.6 31
01:10 1025 30.27 855 25.25 1.3 34.3 87 -0.6 30.9
01:15 1025 30.27 855 25.25 1.3 34.3 87 -0.6 30.9
01:20 1025 30.27 855 25.25 1.3 34.4 88 -0.5 31.1
01:25 1025 30.27 855 25.25 1.3 34.4 88 -0.5 31.1
01:30 1025 30.27 855 25.25 1.4 34.5 87 -0.5 31.1
01:35 1025 30.27 855 25.25 1.4 34.6 87 -0.4 31.2
01:40 1025 30.27 855 25.25 1.4 34.5 87 -0.5 31.1
01:45 1025 30.27 855 25.25 1.4 34.5 87 -0.5 31
01:50 1025 30.27 855 25.25 1.4 34.4 87 -0.6 30.9
01:55 1025 30.27 855 25.25 1.3 34.4 87 -0.6 30.9
02:00 1025 30.27 855 25.25 1.3 34.3 87 -0.7 30.8
02:05 1026 30.3 855 25.25 1.3 34.3 87 -0.7 30.7
02:10 1025 30.27 855 25.25 1.3 34.3 86 -0.8 30.6
02:15 1025 30.27 855 25.25 1.3 34.3 86 -0.8 30.6
02:20 1025 30.27 855 25.25 1.2 34.2 86 -0.8 30.5
02:25 1025 30.27 855 25.25 1.2 34.2 86 -0.8 30.5
02:30 1025 30.27 855 25.25 1.2 34.1 87 -0.8 30.6
02:35 1025 30.27 855 25.25 1.1 33.9 88 -0.8 30.6
02:40 1025 30.27 855 25.25 0.9 33.7 88 -0.8 30.6
02:45 1025 30.27 854 25.22 0.9 33.5 89 -0.8 30.5
02:50 1025 30.27 854 25.22 0.9 33.6 89 -0.8 30.6
02:55 1025 30.27 854 25.22 0.8 33.5 89 -0.9 30.4
03:00 1025 30.27 854 25.22 0.7 33.2 89 -0.9 30.3
03:05 1025 30.27 854 25.22 0.6 33.1 89 -1 30.2
03:10 1025 30.27 854 25.22 0.5 33 89 -1 30.1
03:15 1025 30.27 854 25.22 0.5 32.8 89 -1.1 30
03:20 1025 30.27 854 25.22 0.4 32.8 89 -1.2 29.9
03:25 1025 30.27 854 25.22 0.5 32.8 89 -1.2 29.9
03:30 1025 30.27 854 25.22 0.4 32.7 89 -1.3 29.7
03:35 1025 30.27 854 25.22 0.4 32.7 89 -1.3 29.7
03:40 1025 30.27 854 25.22 0.3 32.6 88 -1.4 29.5
03:45 1025 30.27 854 25.22 0.3 32.5 89 -1.3 29.6
03:50 1025 30.27 854 25.22 0.2 32.4 88 -1.4 29.4
03:55 1025 30.27 854 25.22 0.2 32.3 89 -1.4 29.4
04:00 1025 30.27 854 25.22 0.1 32.2 89 -1.5 29.2
04:05 1025 30.27 854 25.22 0 32.1 89 -1.5 29.2
04:10 1025 30.27 854 25.22 -0 32 89 -1.6 29.1
04:15 1025 30.27 854 25.22 -0.1 31.7 89 -1.7 28.9
04:20 1025 30.27 854 25.22 -0.1 31.8 90 -1.6 29.1
04:25 1025 30.27 854 25.22 0.1 32.1 88 -1.7 29
04:30 1025 30.27 854 25.22 -0.1 31.7 89 -1.7 28.9
04:35 1025 30.27 854 25.22 -0.1 31.9 88 -1.8 28.7
04:40 1025 30.27 854 25.22 0 32.1 88 -1.7 29
04:45 1025 30.27 854 25.22 0.2 32.3 88 -1.6 29
04:50 1025 30.27 854 25.22 0.1 32.2 87 -1.7 28.9
04:55 1025 30.27 854 25.22 0.2 32.3 86 -1.9 28.6
05:00 1025 30.27 854 25.22 -0 32 87 -1.9 28.5
05:05 1025 30.27 854 25.22 -0.1 31.9 87 -2 28.4
05:10 1025 30.27 854 25.22 -0.2 31.7 88 -2 28.4
05:15 1025 30.27 854 25.22 -0.1 31.8 87 -2 28.5
05:20 1025 30.27 854 25.22 -0 32 87 -2 28.4
05:25 1025 30.27 854 25.22 -0.1 31.9 87 -1.9 28.5
05:30 1025 30.27 854 25.22 -0.1 31.8 88 -1.9 28.6
05:35 1025 30.27 854 25.22 0.1 32.2 86 -1.9 28.6
05:40 1025 30.27 854 25.22 0 32.1 87 -1.8 28.7
05:45 1025 30.27 854 25.22 0.1 32.3 87 -1.8 28.8
05:50 1025 30.27 854 25.22 0.3 32.6 87 -1.6 29.1
05:55 1025 30.27 854 25.22 0.4 32.7 87 -1.6 29.2
06:00 1025 30.27 854 25.22 0.4 32.7 86 -1.6 29.1
06:05 1025 30.27 854 25.22 0.4 32.7 87 -1.6 29.1
06:10 1025 30.27 854 25.22 0.5 32.8 87 -1.5 29.4
06:15 1025 30.27 854 25.22 0.5 32.9 86 -1.5 29.3
06:20 1025 30.27 854 25.22 0.5 32.9 86 -1.5 29.3
06:25 1025 30.27 854 25.22 0.5 33 86 -1.5 29.3
06:30 1025 30.27 854 25.22 0.6 33.1 86 -1.4 29.5
06:35 1025 30.27 854 25.22 0.6 33.1 86 -1.4 29.4
06:40 1025 30.27 854 25.22 0.6 33.1 86 -1.4 29.5
06:45 1025 30.27 854 25.22 0.6 33.1 86 -1.4 29.5
06:50 1025 30.27 854 25.22 0.7 33.2 86 -1.4 29.5
06:55 1025 30.27 854 25.22 0.7 33.3 86 -1.4 29.5
07:00 1025 30.27 854 25.22 0.7 33.3 86 -1.4 29.5
07:05 1025 30.27 854 25.22 0.7 33.3 86 -1.3 29.6
07:10 1025 30.27 854 25.22 0.6 33.1 87 -1.4 29.6
07:15 1025 30.27 854 25.22 0.5 32.9 87 -1.4 29.5
07:20 1025 30.27 854 25.22 0.4 32.7 88 -1.3 29.6
07:25 1025 30.27 854 25.22 0.4 32.6 88 -1.3 29.6
07:30 1025 30.27 854 25.22 0.3 32.6 89 -1.3 29.6
07:35 1025 30.27 854 25.22 0.3 32.6 89 -1.3 29.6
07:40 1025 30.27 854 25.22 0.4 32.6 88 -1.4 29.6
07:45 1025 30.27 854 25.22 0.5 32.8 88 -1.4 29.5
07:50 1025 30.27 854 25.22 0.6 33 87 -1.3 29.6
07:55 1025 30.27 854 25.22 0.6 33.1 87 -1.3 29.7
08:00 1025 30.27 854 25.22 0.6 33.1 88 -1.2 29.9
08:05 1025 30.27 854 25.22 0.6 33 88 -1.1 30
08:10 1025 30.27 854 25.22 0.6 33.2 88 -1.1 30.1
08:15 1025 30.27 854 25.22 0.7 33.3 88 -1 30.2
08:20 1025 30.27 854 25.22 0.8 33.5 88 -1 30.3
08:25 1025 30.27 854 25.22 0.9 33.7 87 -0.9 30.3
08:30 1025 30.27 854 25.22 0.9 33.7 86 -1.1 30.1
08:35 1025 30.27 854 25.22 1 33.8 86 -1 30.1
08:40 1025 30.27 854 25.22 1.1 34 86 -1 30.2
08:45 1025 30.27 854 25.22 1.2 34.2 85 -1 30.1
08:50 1025 30.27 854 25.22 1.3 34.4 86 -0.8 30.5
08:55 1025 30.27 854 25.22 1.4 34.6 85 -0.8 30.5
09:00 1025 30.27 854 25.22 1.5 34.7 84 -0.8 30.5
09:05 1025 30.27 854 25.22 1.6 34.8 84 -0.9 30.5
09:10 1025 30.27 854 25.22 1.5 34.8 84 -0.9 30.4
09:15 1025 30.27 854 25.22 1.7 35 84 -0.7 30.7
09:20 1025 30.27 854 25.22 1.9 35.3 84 -0.6 30.9
09:25 1025 30.27 854 25.22 1.9 35.5 83 -0.6 30.9
09:30 1025 30.27 854 25.22 2.1 35.8 83 -0.5 31.1
09:35 1025 30.27 854 25.22 2.3 36.1 82 -0.4 31.3
09:40 1025 30.27 854 25.22 2.5 36.4 81 -0.5 31.1
09:45 1025 30.27 854 25.22 2.6 36.7 80 -0.6 31
09:50 1025 30.27 854 25.22 2.9 37.2 78 -0.6 30.8
09:55 1025 30.27 854 25.22 3.1 37.5 76 -0.8 30.6
10:00 1025 30.27 854 25.22 3.2 37.8 78 -0.3 31.5
10:05 1025 30.27 854 25.22 3.5 38.3 75 -0.6 31
10:10 1025 30.27 854 25.22 3.8 38.8 75 -0.2 31.6
10:15 1025 30.27 854 25.22 4.2 39.6 73 -0.2 31.7
10:20 1025 30.27 854 25.22 4.4 40 71 -0.4 31.4
10:25 1025 30.27 854 25.22 4.1 39.5 75 0.1 32.1
10:30 1025 30.27 854 25.22 4.3 39.7 74 0.1 32.2
10:35 1024 30.24 854 25.22 4.9 40.9 69 -0.3 31.5
10:40 1024 30.24 854 25.22 5.2 41.4 69 0.1 32.2
10:45 1024 30.24 854 25.22 5.4 41.7 68 -0 31.9
10:50 1024 30.24 854 25.22 5.4 41.7 67 -0.3 31.5
10:55 1024 30.24 854 25.22 6.2 43.2 66 0.4 32.8
11:00 1024 30.24 854 25.22 6.9 44.4 63 0.3 32.6
11:05 1024 30.24 854 25.22 6.6 43.9 63 0.1 32.1
11:10 1024 30.24 853 25.19 6.8 44.2 63 0.3 32.6
11:15 1024 30.24 853 25.19 6.6 43.8 65 0.4 32.7
11:20 1024 30.24 853 25.19 6.6 43.9 64 0.2 32.3
11:25 1024 30.24 853 25.19 7.2 45 61 0.3 32.6
11:30 1024 30.24 853 25.19 7.5 45.4 60 0.2 32.4
11:35 1024 30.24 853 25.19 7.8 46 58 0.2 32.3
11:40 1024 30.24 853 25.19 7.2 44.9 63 0.6 33.1
11:45 1024 30.24 853 25.19 6.4 43.6 62 -0.3 31.5
11:50 1024 30.24 853 25.19 6.8 44.2 61 -0.3 31.5
11:55 1024 30.24 853 25.19 7.4 45.3 59 -0.1 31.8
12:00 1024 30.24 853 25.19 7.8 46 58 0.1 32.2
12:05 1024 30.24 853 25.19 7.9 46.2 58 0.2 32.3
12:10 1024 30.24 853 25.19 7.6 45.7 58 -0.1 31.9
12:15 1024 30.24 853 25.19 7.7 45.8 58 -0.1 31.9
12:20 1024 30.24 853 25.19 7.8 46 59 0.2 32.3
12:25 1024 30.24 853 25.19 7.8 46 59 0.4 32.7
12:30 1024 30.24 853 25.19 8.2 46.8 57 0.2 32.4
12:35 1024 30.24 853 25.19 8.6 47.5 56 0.3 32.6
12:40 1024 30.24 853 25.19 8.6 47.6 55 0.2 32.4
12:45 1024 30.24 853 25.19 8.5 47.2 57 0.4 32.7
12:50 1024 30.24 853 25.19 8.1 46.6 58 0.4 32.6
12:55 1024 30.24 853 25.19 8.2 46.8 56 0.1 32.2
13:00 1024 30.24 853 25.19 9.1 48.4 55 0.5 32.8
13:05 1024 30.24 853 25.19 9.5 49.1 55 1 33.7
13:10 1024 30.24 853 25.19 9.5 49.1 55 0.9 33.6
13:15 1023 30.21 853 25.19 9.8 49.6 53 0.8 33.4
13:20 1023 30.21 853 25.19 9.7 49.4 54 0.8 33.5
13:25 1023 30.21 853 25.19 9.5 49.2 57 1.5 34.7
13:30 1023 30.21 853 25.19 9.3 48.7 55 0.7 33.3
13:35 1023 30.21 853 25.19 9.8 49.6 54 0.8 33.5
13:40 1023 30.21 853 25.19 9.9 49.8 51 0.3 32.6
13:45 1023 30.21 852 25.16 10.3 50.5 53 1.1 34
13:50 1023 30.21 852 25.16 10.1 50.1 52 0.6 33.1
13:55 1023 30.21 852 25.16 10.3 50.5 50 0.3 32.5
14:00 1023 30.21 852 25.16 10 49.9 51 0.4 32.7
14:05 1023 30.21 852 25.16 10 50 53 1 33.8
14:10 1023 30.21 852 25.16 9.7 49.5 55 1.2 34.1
14:15 1023 30.21 852 25.16 9.2 48.6 56 1 33.8
14:20 1023 30.21 852 25.16 9.8 49.6 51 0.2 32.3
14:25 1023 30.21 852 25.16 10.5 50.9 49 0.3 32.5
14:30 1023 30.21 852 25.16 10.8 51.4 47 -0 32
14:35 1023 30.21 852 25.16 11.3 52.3 45 -0.3 31.4
14:40 1023 30.21 852 25.16 11 51.7 46 -0.2 31.7
14:45 1023 30.21 852 25.16 10.4 50.6 48 -0.1 31.9
14:50 1023 30.21 852 25.16 10.6 51.1 44 -1 30.1
14:55 1023 30.21 852 25.16 10.9 51.6 47 0 32
15:00 1023 30.21 852 25.16 10.9 51.6 47 0.1 32.1
15:05 1023 30.21 852 25.16 11 51.7 45 -0.5 31.1
15:10 1023 30.21 852 25.16 11.1 52 45 -0.4 31.3
15:15 1023 30.21 852 25.16 11.9 53.5 41 -0.8 30.5
15:20 1023 30.21 852 25.16 11.7 53.1 44 -0.1 31.8
15:25 1022 30.18 852 25.16 11.8 53.2 39 -1.5 29.2
15:30 1022 30.18 852 25.16 12.2 54 38 -1.7 29
15:35 1022 30.18 852 25.16 12 53.6 39 -1.4 29.5
15:40 1022 30.18 852 25.16 12.1 53.7 38 -1.6 29.1
15:45 1022 30.18 852 25.16 11.8 53.2 39 -1.7 28.9
15:50 1022 30.18 852 25.16 11.5 52.7 40 -1.6 29.1
15:55 1022 30.18 852 25.16 10.9 51.7 42 -1.4 29.5
16:00 1022 30.18 852 25.16 10.8 51.5 42 -1.6 29.1
16:05 1022 30.18 851 25.13 10.8 51.5 40 -2 28.3
16:10 1022 30.18 851 25.13 11.1 51.9 40 -2 28.3
16:15 1022 30.18 851 25.13 11.3 52.3 39 -2.3 27.9
16:20 1022 30.18 851 25.13 11.6 52.8 36 -2.9 26.9
16:25 1022 30.18 851 25.13 12.7 54.8 34 -2.6 27.3
16:30 1022 30.18 851 25.13 13 55.3 34 -2.4 27.7
16:35 1022 30.18 851 25.13 12.8 55 34 -2.4 27.6
16:40 1022 30.18 851 25.13 12.3 54.2 36 -2.1 28.2
16:45 1022 30.18 851 25.13 12.2 53.9 37 -2.2 28.1
16:50 1022 30.18 851 25.13 12.4 54.4 35 -2.6 27.3
16:55 1022 30.18 851 25.13 12.5 54.5 33 -3.1 26.3
17:00 1022 30.18 851 25.13 12.2 54 35 -2.7 27.2
17:05 1022 30.18 851 25.13 12 53.6 35 -3 26.6
17:10 1022 30.18 851 25.13 12.3 54.2 36 -2.3 27.8
17:15 1022 30.18 851 25.13 12.3 54.1 36 -2.3 27.9
17:20 1022 30.18 851 25.13 11.9 53.4 38 -1.8 28.7
17:25 1022 30.18 851 25.13 11.7 53 38 -2.1 28.2
17:30 1022 30.18 851 25.13 11 51.8 41 -1.7 29
17:35 1022 30.18 851 25.13 10.6 51 43 -1.5 29.3
17:40 1022 30.18 851 25.13 10.4 50.7 44 -1.4 29.5
17:45 1022 30.18 851 25.13 10.3 50.5 43 -1.7 29
17:50 1022 30.18 851 25.13 10.2 50.4 43 -1.7 29
17:55 1022 30.18 851 25.13 10 50 44 -1.8 28.8
18:00 1022 30.18 851 25.13 9.9 49.9 45 -1.5 29.2
18:05 1022 30.18 851 25.13 9.9 49.8 45 -1.5 29.3
18:10 1022 30.18 851 25.13 9.8 49.7 44 -1.8 28.8
18:15 1022 30.18 851 25.13 9.7 49.5 44 -2.1 28.3
18:20 1022 30.18 851 25.13 9.6 49.3 44 -1.9 28.6
18:25 1022 30.18 851 25.13 9.4 48.8 44 -2.3 27.9
18:30 1022 30.18 851 25.13 9.1 48.4 45 -2.2 28.1
18:35 1022 30.18 851 25.13 9 48.3 46 -2 28.5
18:40 1022 30.18 851 25.13 9.1 48.3 45 -2.2 28
18:45 1022 30.18 851 25.13 9.1 48.3 45 -2.1 28.1
18:50 1022 30.18 851 25.13 9 48.2 47 -1.6 29.2
18:55 1022 30.18 851 25.13 8.8 47.8 57 0.7 33.3
19:00 1022 30.18 851 25.13 8.4 47.2 59 1 33.8
19:05 1022 30.18 851 25.13 8.2 46.7 59 0.7 33.2
19:10 1022 30.18 851 25.13 8 46.4 63 1.3 34.4
19:15 1022 30.18 851 25.13 7.6 45.6 63 1.1 33.9
19:20 1022 30.18 851 25.13 7.5 45.5 64 1.2 34.1
19:25 1022 30.18 851 25.13 7.4 45.3 65 1.3 34.3
19:30 1022 30.18 851 25.13 7.2 44.9 66 1.3 34.3
19:35 1022 30.18 851 25.13 7.1 44.8 66 1.2 34.1
19:40 1022 30.18 851 25.13 7 44.6 67 1.3 34.3
19:45 1022 30.18 851 25.13 6.8 44.3 67 1.2 34.2
19:50 1022 30.18 851 25.13 6.7 44.1 67 1.1 34
19:55 1022 30.18 851 25.13 6.6 43.8 68 1.1 33.9
20:00 1022 30.18 851 25.13 6.4 43.5 68 0.9 33.7
20:05 1022 30.18 851 25.13 6.3 43.3 68 0.9 33.6
20:10 1022 30.18 851 25.13 6.2 43.1 69 0.9 33.6
20:15 1022 30.18 851 25.13 6 42.7 69 0.7 33.2
20:20 1022 30.18 851 25.13 5.8 42.5 69 0.7 33.2
20:25 1022 30.18 851 25.13 5.7 42.3 69 0.5 33
20:30 1022 30.18 851 25.13 5.6 42.1 70 0.6 33.1
20:35 1022 30.18 851 25.13 5.4 41.8 71 0.5 32.9
20:40 1022 30.18 851 25.13 5.3 41.5 71 0.5 32.9
20:45 1022 30.18 851 25.13 5.2 41.4 71 0.4 32.7
20:50 1022 30.18 851 25.13 5.1 41.2 71 0.2 32.4
20:55 1022 30.18 851 25.13 5 41 71 0.2 32.4
21:00 1022 30.18 851 25.13 4.9 40.8 71 0.1 32.2
21:05 1022 30.18 851 25.13 4.7 40.5 71 0 32
21:10 1022 30.18 851 25.13 4.5 40.2 72 -0 32
21:15 1022 30.18 851 25.13 4.4 39.9 72 -0.1 31.7
21:20 1022 30.18 851 25.13 4.3 39.8 72 -0.2 31.6
21:25 1022 30.18 851 25.13 4.3 39.7 72 -0.3 31.5
21:30 1022 30.18 851 25.13 4.1 39.3 73 -0.4 31.3
21:35 1022 30.18 851 25.13 3.8 38.9 73 -0.5 31.1
21:40 1022 30.18 851 25.13 3.5 38.3 75 -0.6 31
21:45 1022 30.18 851 25.13 3.4 38.2 74 -0.8 30.6
21:50 1022 30.18 851 25.13 3.5 38.3 73 -0.9 30.3
21:55 1022 30.18 851 25.13 3.7 38.6 72 -1 30.2
22:00 1022 30.18 851 25.13 3.8 38.9 71 -1 30.2
22:05 1022 30.18 851 25.13 4 39.3 71 -0.8 30.6
22:10 1021 30.15 851 25.13 4 39.1 72 -0.7 30.7
22:15 1021 30.15 851 25.13 3.8 38.9 72 -0.8 30.6
22:20 1021 30.15 851 25.13 3.7 38.6 73 -0.8 30.6
22:25 1021 30.15 851 25.13 3.8 38.8 71 -0.9 30.3
22:30 1021 30.15 851 25.13 3.7 38.7 72 -0.8 30.5
22:35 1021 30.15 851 25.13 3.5 38.3 73 -0.8 30.5
22:40 1021 30.15 851 25.13 3.2 37.8 74 -1 30.2
22:45 1021 30.15 851 25.13 3.1 37.5 75 -1 30.2
22:50 1021 30.15 851 25.13 2.7 36.9 76 -1.1 30
22:55 1021 30.15 851 25.13 2.6 36.6 76 -1.3 29.7
23:00 1021 30.15 850 25.1 2.6 36.7 75 -1.4 29.5
23:05 1021 30.15 850 25.1 2.7 36.9 75 -1.4 29.5
23:10 1021 30.15 850 25.1 2.7 36.9 76 -1.2 29.9
23:15 1021 30.15 850 25.1 3.1 37.7 73 -1.1 29.9
23:20 1021 30.15 850 25.1 3 37.5 74 -1.1 30
23:25 1021 30.15 850 25.1 2.9 37.2 75 -1.2 29.9
23:30 1021 30.15 850 25.1 2.8 37 74 -1.3 29.6
23:35 1021 30.15 850 25.1 2.9 37.2 74 -1.3 29.6
23:40 1021 30.15 850 25.1 2.8 37.1 74 -1.4 29.5
23:45 1021 30.15 850 25.1 2.8 37 74 -1.3 29.6
23:50 1021 30.15 850 25.1 2.7 36.9 74 -1.4 29.4
23:55 1021 30.15 850 25.1 2.7 36.8 74 -1.5 29.3
24:00 1021 30.15 850 25.1 2.6 36.7 74 -1.5 29.2